Durango Ski Resort, Colorado Weather observations

Data are for observation ending at time listed.
 Day   Time    Ave.   Ave.  Ave.  Vector   Max.    Total    Solar   Ave.  
  of    of     Air    Rel.  Wind   Wind    Wind   Precip.   Rad.    Soil  
Year   Day     Temp.  Hum.  Speed  Dir.    Gust                     Temp. 
2016   (PST)    F      %     mph   deg.    mph      in.     W/m2     F   
------------------------------------------------------------------------------
 209    0:00   54.8    58    0.0     0      0.0    99999.00   99999    99999.0
 209    0:10   54.8    57    0.0     0      0.0    99999.00   99999    99999.0
 209    0:20   54.9    56    0.0     0      0.0    99999.00   99999    99999.0
 209    0:30   54.4    60    0.0     0      0.0    99999.00   99999    99999.0
 209    0:40   54.3    59    0.0     0      0.0    99999.00   99999    99999.0
 209    0:50   54.3    58    0.0     0      0.0    99999.00   99999    99999.0
 209    1:00   54.4    57    0.0     0      0.0    99999.00   99999    99999.0
 209    1:10   54.6    57    0.0     0      0.0    99999.00   99999    99999.0
 209    1:20   54.6    56    0.0     0      0.0    99999.00   99999    99999.0
 209    1:30   55.0    54    0.0     0      0.0    99999.00   99999    99999.0
 209    1:40   55.2    54    0.0     0      0.0    99999.00   99999    99999.0
 209    1:50   54.7    54    0.0     0      0.0    99999.00   99999    99999.0
 209    2:00   55.0    53    0.0     0      0.0    99999.00   99999    99999.0
 209    2:10   55.1    53    0.0     0      0.0    99999.00   99999    99999.0
 209    2:20   55.1    53    0.0     0      0.0    99999.00   99999    99999.0
 209    2:30   55.2    53    0.0     0      0.0    99999.00   99999    99999.0
 209    2:40   55.4    52    0.0     0      0.0    99999.00   99999    99999.0
 209    2:50   55.8    50    0.0     0      0.0    99999.00   99999    99999.0
 209    3:00   55.8    50    0.0     0      0.0    99999.00   99999    99999.0
 209    3:10   55.7    51    0.0     0      0.0    99999.00   99999    99999.0
 209    3:20   55.7    50    0.0     0      0.0    99999.00   99999    99999.0
 209    3:30   55.7    50    0.0     0      0.0    99999.00   99999    99999.0
 209    3:40   55.3    49    0.0     0      0.0    99999.00   99999    99999.0
 209    3:50   55.3    49    0.0     0      0.0    99999.00   99999    99999.0
 209    4:00   55.0    49    0.0     0      0.0    99999.00   99999    99999.0
 209    4:10   55.5    50    0.0     0      0.0    99999.00   99999    99999.0
 209    4:20   55.5    49    0.0     0      0.0    99999.00   99999    99999.0
 209    4:30   55.2    50    0.0     0      0.0    99999.00   99999    99999.0
 209    4:40   55.1    50    0.0     0      0.0    99999.00   99999    99999.0
 209    4:50   55.0    50    0.0     0      0.0    99999.00   99999    99999.0
 209    5:00   55.4    49    0.0     0      0.0    99999.00   99999    99999.0
 209    5:10   55.5    50    0.0     0      0.0    99999.00   99999    99999.0
 209    5:20   55.2    50    0.0     0      0.0    99999.00   99999    99999.0
 209    5:30   55.3    48    0.0     0      0.0    99999.00   99999    99999.0
 209    5:40   55.5    47    0.0     0      0.0    99999.00   99999    99999.0
 209    5:50   55.6    47    0.0     0      0.0    99999.00   99999    99999.0
 209    6:00   55.5    48    0.0     0      0.0    99999.00   99999    99999.0
 209    6:10   55.5    48    0.0     0      0.0    99999.00   99999    99999.0
 209    6:20   55.5    48    0.0     0      0.0    99999.00   99999    99999.0
 209    6:30   55.6    48    0.0     0      0.0    99999.00   99999    99999.0
 209    6:40   56.4    44    4.7    26      6.9    99999.00   99999    99999.0
 209    6:50   56.8    44    2.0    22      4.4    99999.00   99999    99999.0
 209    7:00   56.8    44    4.7     7      8.6    99999.00   99999    99999.0
 209    7:10   56.9    40    7.4   334      9.5    99999.00   99999    99999.0
 209    7:20   56.8    39    8.9   318     12.1    99999.00   99999    99999.0
 209    7:30   57.0    38    8.2   316      9.9    99999.00   99999    99999.0
 209    7:40   57.2    38    7.9   314     11.6    99999.00   99999    99999.0
 209    7:50   57.4    38    8.6   314     11.2    99999.00   99999    99999.0
 209    8:00   57.5    38    8.2   314     11.6    99999.00   99999    99999.0
 209    8:10   57.9    38    6.0   313      9.5    99999.00   99999    99999.0
 209    8:20   59.0    36    1.1   313      4.4    99999.00   99999    99999.0
 209    8:30   59.8    36    0.0     0      0.0    99999.00   99999    99999.0
 209    8:40   60.5    37    0.0     0      0.0    99999.00   99999    99999.0
 209    8:50   60.2    38    0.6   313      4.4    99999.00   99999    99999.0
 209    9:00   60.2    39    0.9   313      5.2    99999.00   99999    99999.0
 209    9:10   60.4    34    0.0     0      0.0    99999.00   99999    99999.0
 209    9:20   61.6    33    0.7    12      5.7    99999.00   99999    99999.0
 209    9:30   62.2    32    1.4   329      7.4    99999.00   99999    99999.0
 209    9:40   61.1    34    6.9   314     12.9    99999.00   99999    99999.0
 209    9:50   60.7    34    7.3   308     12.5    99999.00   99999    99999.0
 209   10:00   61.0    32    5.9   303     12.9    99999.00   99999    99999.0
 209   10:10   61.8    33    5.4   321     11.6    99999.00   99999    99999.0
 209   10:20   62.2    30    6.5   321     15.5    99999.00   99999    99999.0
 209   10:30   62.9    28    4.8   310     14.2    99999.00   99999    99999.0
 209   10:40   62.8    26    9.2   344     15.0    99999.00   99999    99999.0
 209   10:50   63.6    25    7.8     2     13.3    99999.00   99999    99999.0
 209   11:00   64.6    24    7.2     4     12.9    99999.00   99999    99999.0
 209   11:10   64.8    24    7.8     6     15.9    99999.00   99999    99999.0
 209   11:20   64.3    22   11.0    10     19.7    99999.00   99999    99999.0
 209   11:30   64.1    24    8.9     5     21.0    99999.00   99999    99999.0
 209   11:40   64.3    22    9.5    19     18.5    99999.00   99999    99999.0
 209   11:50   64.3    22   10.6     5     17.6    99999.00   99999    99999.0
 209   12:00   65.0    23   10.1     6     21.0    99999.00   99999    99999.0
 209   12:10   64.9    23    9.2   354     15.5    99999.00   99999    99999.0
 209   12:20   64.7    22   16.3   325     32.5    99999.00   99999    99999.0
 209   12:30   64.6    22   14.2   324     26.6    99999.00   99999    99999.0
 209   12:40   64.8    24   10.5   320     22.3    99999.00   99999    99999.0
 209   12:50   65.3    25   10.8   314     24.4    99999.00   99999    99999.0
 209   13:00   65.4    26    9.6   321     20.2    99999.00   99999    99999.0
 209   13:10   64.6    26   11.4   325     18.0    99999.00   99999    99999.0
 209   13:20   65.5    26    4.8     6     12.1    99999.00   99999    99999.0
 209   13:30   67.7    26    5.5     2      9.9    99999.00   99999    99999.0
 209   13:40   68.5    25    6.5    11     15.5    99999.00   99999    99999.0
 209   13:50   68.0    23    7.9   347     12.1    99999.00   99999    99999.0
 209   14:00   66.9    23    9.5   357     15.9    99999.00   99999    99999.0
 209   14:10   67.3    26    7.6   357     14.6    99999.00   99999    99999.0
 209   14:20   67.0    26    7.3     0     15.9    99999.00   99999    99999.0
 209   14:30   67.3    25    8.1     9     12.9    99999.00   99999    99999.0
 209   14:40   68.5    25    6.3     4     12.1    99999.00   99999    99999.0
 209   14:50   69.3    26    8.7     0     14.6    99999.00   99999    99999.0
 209   15:00   67.6    24    8.9   355     16.8    99999.00   99999    99999.0
 209   15:10   67.6    23    8.9   342     17.6    99999.00   99999    99999.0
 209   15:20   68.6    23    7.1     0     12.9    99999.00   99999    99999.0
 209   15:30   68.0    22    6.3   358     12.5    99999.00   99999    99999.0
 209   15:40   68.5    23    7.4   355     12.5    99999.00   99999    99999.0
 209   15:50   67.3    22    8.7     4     14.2    99999.00   99999    99999.0
 209   16:00   68.6    22    8.4   337     14.6    99999.00   99999    99999.0
 209   16:10   68.7    22   10.7   330     21.0    99999.00   99999    99999.0
 209   16:20   70.4    21    6.3   355     12.9    99999.00   99999    99999.0
 209   16:30   70.8    20    6.2    17     14.2    99999.00   99999    99999.0
 209   16:40   70.2    20    5.3   354      9.5    99999.00   99999    99999.0
 209   16:50   70.7    20    6.3   356      8.2    99999.00   99999    99999.0
 209   17:00   68.9    20   10.0   342     16.8    99999.00   99999    99999.0
 209   17:10   69.1    21    9.9   324     17.6    99999.00   99999    99999.0
 209   17:20   70.7    20    4.7     1     11.6    99999.00   99999    99999.0
 209   17:30   69.5    19    8.0   350     13.8    99999.00   99999    99999.0
 209   17:40   69.7    19    6.3     3     15.0    99999.00   99999    99999.0
 209   17:50   69.1    18   11.7   323     24.0    99999.00   99999    99999.0
 209   18:00   69.2    19    6.9   342     13.8    99999.00   99999    99999.0
 209   18:10   69.3    19    7.0   355     15.9    99999.00   99999    99999.0
 209   18:20   69.9    18    5.3     5      8.2    99999.00   99999    99999.0
 209   18:30   69.8    17    6.0     5     10.8    99999.00   99999    99999.0
 209   18:40   68.7    17    6.9     8     12.5    99999.00   99999    99999.0
 209   18:50   68.1    17    7.6     9     11.6    99999.00   99999    99999.0
 209   19:00   67.4    17    7.2     5     10.3    99999.00   99999    99999.0
 209   19:10   67.3    18    7.2     6     10.8    99999.00   99999    99999.0
 209   19:20   66.9    18    6.9     7     11.2    99999.00   99999    99999.0
 209   19:30   66.5    18    6.4     8     12.1    99999.00   99999    99999.0
 209   19:40   66.4    18    4.6     9      9.1    99999.00   99999    99999.0
 209   19:50   65.8    18    5.6    11     10.3    99999.00   99999    99999.0
 209   20:00   65.2    19    3.1    15      6.1    99999.00   99999    99999.0
 209   20:10   63.8    20    4.3     5      8.6    99999.00   99999    99999.0
 209   20:20   63.0    20    4.0     4      9.9    99999.00   99999    99999.0
 209   20:30   62.4    20    3.2    20     11.6    99999.00   99999    99999.0
 209   20:40   62.5    20    5.9    10     12.1    99999.00   99999    99999.0
 209   20:50   62.0    21    4.7     6      8.2    99999.00   99999    99999.0
 209   21:00   61.7    22    4.3     6     10.3    99999.00   99999    99999.0
 209   21:10   61.4    21    2.5    10      9.5    99999.00   99999    99999.0
 209   21:20   61.7    21    3.8     1      8.2    99999.00   99999    99999.0
 209   21:30   61.6    20    5.1     9      8.2    99999.00   99999    99999.0
 209   21:40   61.5    20    4.0    22      9.5    99999.00   99999    99999.0
 209   21:50   61.1    20    2.5    16      6.5    99999.00   99999    99999.0
 209   22:00   61.0    20    2.5    26      5.7    99999.00   99999    99999.0
 209   22:10   60.8    20    1.7    12      6.5    99999.00   99999    99999.0
 209   22:20   60.5    21    3.0     6      7.8    99999.00   99999    99999.0
 209   22:30   60.2    21    3.0     7      9.5    99999.00   99999    99999.0
 209   22:40   60.7    22    3.6     9      7.8    99999.00   99999    99999.0
 209   22:50   60.9    22    2.2    20      8.2    99999.00   99999    99999.0
 209   23:00   61.1    23    4.6    28     10.3    99999.00   99999    99999.0
 209   23:10   61.6    24    5.8    26     10.8    99999.00   99999    99999.0
 209   23:20   61.2    24    4.8    28      9.1    99999.00   99999    99999.0
 209   23:30   61.1    25    2.9    23      7.4    99999.00   99999    99999.0
 209   23:40   60.9    26    4.2    21      9.5    99999.00   99999    99999.0
 209   23:50   60.9    26    5.3    23      9.1    99999.00   99999    99999.0

Return to Durango Ski Resort, Colorado graphs page.


Western Regional Climate Center,wrcc@dri.edu